sensor_id;sensor_type;location;lat;lon;timestamp;pressure;altitude;pressure_sealevel;temperature;humidity
43430;BME280;29028;43.234;27.896;2022-10-23T04:01:51;100174.38;;;15.06;54.63
43430;BME280;29028;43.234;27.896;2022-10-23T04:02:16;100178.13;;;15.05;54.68
43430;BME280;29028;43.234;27.896;2022-10-23T04:02:36;100173.75;;;15.04;54.63
43430;BME280;29028;43.234;27.896;2022-10-23T04:02:57;100169.53;;;15.08;54.67
43430;BME280;29028;43.234;27.896;2022-10-23T04:03:18;100165.84;;;15.02;54.51
43430;BME280;29028;43.234;27.896;2022-10-23T04:03:40;100177.91;;;15.06;54.62
43430;BME280;29028;43.234;27.896;2022-10-23T04:04:01;100168.72;;;15.07;54.68
43430;BME280;29028;43.234;27.896;2022-10-23T04:04:22;100174.75;;;15.09;54.80
43430;BME280;29028;43.234;27.896;2022-10-23T04:04:43;100171.00;;;15.10;54.90
43430;BME280;29028;43.234;27.896;2022-10-23T04:05:05;100168.53;;;15.09;54.93
43430;BME280;29028;43.234;27.896;2022-10-23T04:05:26;100173.53;;;15.05;55.01
43430;BME280;29028;43.234;27.896;2022-10-23T04:05:47;100182.69;;;15.11;55.12
43430;BME280;29028;43.234;27.896;2022-10-23T04:06:08;100181.03;;;15.10;55.18
43430;BME280;29028;43.234;27.896;2022-10-23T04:06:29;100176.47;;;15.04;55.08
43430;BME280;29028;43.234;27.896;2022-10-23T04:06:51;100174.53;;;15.11;55.10
43430;BME280;29028;43.234;27.896;2022-10-23T04:07:12;100179.38;;;15.09;55.07
43430;BME280;29028;43.234;27.896;2022-10-23T04:07:33;100179.56;;;15.07;55.21
43430;BME280;29028;43.234;27.896;2022-10-23T04:07:55;100174.56;;;15.04;55.25
43430;BME280;29028;43.234;27.896;2022-10-23T04:08:16;100175.03;;;15.01;55.19
43430;BME280;29028;43.234;27.896;2022-10-23T04:08:37;100180.00;;;15.04;55.19
43430;BME280;29028;43.234;27.896;2022-10-23T04:08:59;100174.75;;;15.09;55.08
43430;BME280;29028;43.234;27.896;2022-10-23T04:09:20;100173.53;;;15.05;55.07
43430;BME280;29028;43.234;27.896;2022-10-23T04:09:41;100183.94;;;15.08;54.90
43430;BME280;29028;43.234;27.896;2022-10-23T04:10:02;100180.38;;;15.08;55.04
43430;BME280;29028;43.234;27.896;2022-10-23T04:10:23;100184.78;;;15.09;55.31
43430;BME280;29028;43.234;27.896;2022-10-23T04:10:45;100175.84;;;15.02;55.38
43430;BME280;29028;43.234;27.896;2022-10-23T04:11:06;100161.09;;;14.98;55.19
43430;BME280;29028;43.234;27.896;2022-10-23T04:11:27;100180.22;;;15.03;55.56
43430;BME280;29028;43.234;27.896;2022-10-23T04:11:48;100176.47;;;15.04;55.27
43430;BME280;29028;43.234;27.896;2022-10-23T04:12:09;100174.19;;;15.01;55.54
43430;BME280;29028;43.234;27.896;2022-10-23T04:12:30;100180.06;;;14.98;55.68
43430;BME280;29028;43.234;27.896;2022-10-23T04:12:51;100177.59;;;14.90;55.70
43430;BME280;29028;43.234;27.896;2022-10-23T04:13:12;100175.28;;;14.93;55.87
43430;BME280;29028;43.234;27.896;2022-10-23T04:13:33;100177.13;;;14.99;55.83
43430;BME280;29028;43.234;27.896;2022-10-23T04:13:54;100179.81;;;14.99;56.18
43430;BME280;29028;43.234;27.896;2022-10-23T04:14:15;100183.19;;;14.95;55.87
43430;BME280;29028;43.234;27.896;2022-10-23T04:14:36;100174.66;;;14.98;56.13
43430;BME280;29028;43.234;27.896;2022-10-23T04:14:58;100180.00;;;15.04;55.91
43430;BME280;29028;43.234;27.896;2022-10-23T04:15:19;100187.88;;;15.12;56.08
43430;BME280;29028;43.234;27.896;2022-10-23T04:15:39;100178.53;;;15.08;56.10
43430;BME280;29028;43.234;27.896;2022-10-23T04:16:00;100181.63;;;15.12;55.97
43430;BME280;29028;43.234;27.896;2022-10-23T04:16:22;100179.78;;;15.06;56.21
43430;BME280;29028;43.234;27.896;2022-10-23T04:16:43;100182.88;;;15.09;55.85
43430;BME280;29028;43.234;27.896;2022-10-23T04:17:06;100180.63;;;15.06;55.79
43430;BME280;29028;43.234;27.896;2022-10-23T04:17:27;100192.28;;;15.07;55.92
43430;BME280;29028;43.234;27.896;2022-10-23T04:17:48;100179.75;;;15.12;55.73
43430;BME280;29028;43.234;27.896;2022-10-23T04:18:09;100182.41;;;15.19;55.75
43430;BME280;29028;43.234;27.896;2022-10-23T04:18:30;100181.19;;;15.15;55.87
43430;BME280;29028;43.234;27.896;2022-10-23T04:18:51;100178.03;;;15.18;56.04
43430;BME280;29028;43.234;27.896;2022-10-23T04:19:13;100188.28;;;15.16;55.33
43430;BME280;29028;43.234;27.896;2022-10-23T04:19:36;100187.44;;;15.15;54.92
43430;BME280;29028;43.234;27.896;2022-10-23T04:19:57;100189.16;;;15.10;55.08
43430;BME280;29028;43.234;27.896;2022-10-23T04:20:18;100185.59;;;15.09;55.08
43430;BME280;29028;43.234;27.896;2022-10-23T04:20:39;100189.72;;;15.18;55.34
43430;BME280;29028;43.234;27.896;2022-10-23T04:21:00;100193.06;;;15.14;55.33
43430;BME280;29028;43.234;27.896;2022-10-23T04:21:21;100181.19;;;15.15;55.33
43430;BME280;29028;43.234;27.896;2022-10-23T04:21:43;100188.47;;;15.21;55.11
43430;BME280;29028;43.234;27.896;2022-10-23T04:22:04;100185.34;;;15.17;55.11
43430;BME280;29028;43.234;27.896;2022-10-23T04:22:25;100193.03;;;15.20;55.01
43430;BME280;29028;43.234;27.896;2022-10-23T04:22:47;100183.53;;;15.11;55.17
43430;BME280;29028;43.234;27.896;2022-10-23T04:23:08;100187.91;;;15.06;55.23
43430;BME280;29028;43.234;27.896;2022-10-23T04:23:29;100185.22;;;15.06;55.33
43430;BME280;29028;43.234;27.896;2022-10-23T04:23:50;100187.50;;;15.09;55.44
43430;BME280;29028;43.234;27.896;2022-10-23T04:24:12;100172.06;;;15.03;55.67
43430;BME280;29028;43.234;27.896;2022-10-23T04:24:33;100186.69;;;15.02;55.61
43430;BME280;29028;43.234;27.896;2022-10-23T04:24:53;100185.88;;;15.01;55.43
43430;BME280;29028;43.234;27.896;2022-10-23T04:25:14;100172.94;;;14.97;55.27
43430;BME280;29028;43.234;27.896;2022-10-23T04:25:37;100188.94;;;15.11;55.54
43430;BME280;29028;43.234;27.896;2022-10-23T04:25:57;100191.31;;;15.01;55.64
43430;BME280;29028;43.234;27.896;2022-10-23T04:26:18;100186.31;;;14.98;56.12
43430;BME280;29028;43.234;27.896;2022-10-23T04:26:39;100190.06;;;14.97;56.08
43430;BME280;29028;43.234;27.896;2022-10-23T04:27:01;100194.72;;;14.90;56.16
43430;BME280;29028;43.234;27.896;2022-10-23T04:27:22;100188.91;;;14.80;56.35
43430;BME280;29028;43.234;27.896;2022-10-23T04:27:43;100191.41;;;14.82;56.68
43430;BME280;29028;43.234;27.896;2022-10-23T04:28:04;100195.41;;;14.73;56.54
43430;BME280;29028;43.234;27.896;2022-10-23T04:28:26;100193.81;;;14.59;57.20
43430;BME280;29028;43.234;27.896;2022-10-23T04:28:48;100199.03;;;14.60;57.42
43430;BME280;29028;43.234;27.896;2022-10-23T04:29:08;100203.44;;;14.55;57.45
43430;BME280;29028;43.234;27.896;2022-10-23T04:29:30;100200.94;;;14.53;57.40
43430;BME280;29028;43.234;27.896;2022-10-23T04:29:51;100201.13;;;14.58;57.67
43430;BME280;29028;43.234;27.896;2022-10-23T04:30:12;100205.09;;;14.56;57.79
43430;BME280;29028;43.234;27.896;2022-10-23T04:30:33;100204.69;;;14.52;58.51
43430;BME280;29028;43.234;27.896;2022-10-23T04:30:54;100202.81;;;14.53;58.09
43430;BME280;29028;43.234;27.896;2022-10-23T04:31:16;100196.97;;;14.49;58.17
43430;BME280;29028;43.234;27.896;2022-10-23T04:31:37;100203.66;;;14.53;57.96
43430;BME280;29028;43.234;27.896;2022-10-23T04:31:57;100198.88;;;14.49;58.32
43430;BME280;29028;43.234;27.896;2022-10-23T04:32:20;100198.88;;;14.49;58.13
43430;BME280;29028;43.234;27.896;2022-10-23T04:32:41;100197.19;;;14.48;58.35
43430;BME280;29028;43.234;27.896;2022-10-23T04:33:02;100204.25;;;14.55;58.41
43430;BME280;29028;43.234;27.896;2022-10-23T04:33:23;100203.44;;;14.55;58.35
43430;BME280;29028;43.234;27.896;2022-10-23T04:33:44;100193.19;;;14.57;58.26
43430;BME280;29028;43.234;27.896;2022-10-23T04:34:06;100204.69;;;14.52;58.33
43430;BME280;29028;43.234;27.896;2022-10-23T04:34:27;100202.19;;;14.51;58.60
43430;BME280;29028;43.234;27.896;2022-10-23T04:34:48;100205.97;;;14.50;58.53
43430;BME280;29028;43.234;27.896;2022-10-23T04:35:09;100202.00;;;14.52;58.35
43430;BME280;29028;43.234;27.896;2022-10-23T04:35:31;100205.72;;;14.51;58.61
43430;BME280;29028;43.234;27.896;2022-10-23T04:35:52;100202.88;;;14.33;59.01
43430;BME280;29028;43.234;27.896;2022-10-23T04:36:12;100205.59;;;14.27;59.25
43430;BME280;29028;43.234;27.896;2022-10-23T04:36:33;100212.66;;;14.34;59.12
43430;BME280;29028;43.234;27.896;2022-10-23T04:36:55;100217.47;;;14.39;59.08
43430;BME280;29028;43.234;27.896;2022-10-23T04:37:16;100211.66;;;14.35;59.11
43430;BME280;29028;43.234;27.896;2022-10-23T04:37:37;100211.59;;;14.42;58.93
43430;BME280;29028;43.234;27.896;2022-10-23T04:37:58;100219.78;;;14.35;58.59
43430;BME280;29028;43.234;27.896;2022-10-23T04:38:19;100207.47;;;14.33;59.13
43430;BME280;29028;43.234;27.896;2022-10-23T04:38:41;100211.84;;;14.27;59.19
43430;BME280;29028;43.234;27.896;2022-10-23T04:39:02;100205.81;;;14.12;59.15
43430;BME280;29028;43.234;27.896;2022-10-23T04:39:23;100215.00;;;14.05;59.67
43430;BME280;29028;43.234;27.896;2022-10-23T04:39:45;100211.03;;;14.07;59.74
43430;BME280;29028;43.234;27.896;2022-10-23T04:40:07;100219.59;;;13.98;59.99
43430;BME280;29028;43.234;27.896;2022-10-23T04:40:28;100212.28;;;14.05;60.20
43430;BME280;29028;43.234;27.896;2022-10-23T04:40:49;100208.13;;;14.09;60.07
43430;BME280;29028;43.234;27.896;2022-10-23T04:41:11;100209.78;;;14.10;60.29
43430;BME280;29028;43.234;27.896;2022-10-23T04:41:32;100202.09;;;14.07;60.01
43430;BME280;29028;43.234;27.896;2022-10-23T04:41:52;100206.66;;;14.13;60.40
43430;BME280;29028;43.234;27.896;2022-10-23T04:42:14;100208.56;;;14.06;60.50
43430;BME280;29028;43.234;27.896;2022-10-23T04:42:35;100210.63;;;14.04;60.11
43430;BME280;29028;43.234;27.896;2022-10-23T04:42:56;100215.22;;;14.03;60.67
43430;BME280;29028;43.234;27.896;2022-10-23T04:43:17;100212.53;;;14.03;60.58
43430;BME280;29028;43.234;27.896;2022-10-23T04:43:37;100217.75;;;13.98;60.31
43430;BME280;29028;43.234;27.896;2022-10-23T04:43:59;100212.94;;;14.00;60.65
43430;BME280;29028;43.234;27.896;2022-10-23T04:44:21;100216.69;;;13.93;60.55
43430;BME280;29028;43.234;27.896;2022-10-23T04:44:41;100219.41;;;13.99;60.64
43430;BME280;29028;43.234;27.896;2022-10-23T04:45:02;100208.38;;;14.01;60.35
43430;BME280;29028;43.234;27.896;2022-10-23T04:45:23;100201.91;;;14.02;60.43
43430;BME280;29028;43.234;27.896;2022-10-23T04:45:44;100212.53;;;14.03;60.65
43430;BME280;29028;43.234;27.896;2022-10-23T04:46:06;100215.66;;;13.94;60.45
43430;BME280;29028;43.234;27.896;2022-10-23T04:46:27;100214.81;;;13.87;60.67
43430;BME280;29028;43.234;27.896;2022-10-23T04:46:48;100215.47;;;13.89;61.04
43430;BME280;29028;43.234;27.896;2022-10-23T04:47:08;100211.91;;;13.88;61.19
43430;BME280;29028;43.234;27.896;2022-10-23T04:47:31;100209.00;;;13.77;61.28
43430;BME280;29028;43.234;27.896;2022-10-23T04:47:52;100203.84;;;13.75;61.42
43430;BME280;29028;43.234;27.896;2022-10-23T04:48:13;100213.41;;;13.71;61.61
43430;BME280;29028;43.234;27.896;2022-10-23T04:48:34;100204.25;;;13.59;61.72
43430;BME280;29028;43.234;27.896;2022-10-23T04:48:55;100215.28;;;13.58;62.19
43430;BME280;29028;43.234;27.896;2022-10-23T04:49:16;100212.75;;;13.50;62.54
43430;BME280;29028;43.234;27.896;2022-10-23T04:49:38;100219.44;;;13.54;62.91
43430;BME280;29028;43.234;27.896;2022-10-23T04:49:59;100216.72;;;13.54;62.78
43430;BME280;29028;43.234;27.896;2022-10-23T04:50:20;100211.13;;;13.55;62.70
43430;BME280;29028;43.234;27.896;2022-10-23T04:50:40;100210.88;;;13.63;62.68
43430;BME280;29028;43.234;27.896;2022-10-23T04:51:04;100217.13;;;13.57;62.62
43430;BME280;29028;43.234;27.896;2022-10-23T04:51:25;100211.94;;;13.62;62.74
43430;BME280;29028;43.234;27.896;2022-10-23T04:51:46;100223.81;;;13.61;62.79
43430;BME280;29028;43.234;27.896;2022-10-23T04:52:07;100216.31;;;13.57;63.18
43430;BME280;29028;43.234;27.896;2022-10-23T04:52:27;100213.38;;;13.58;63.15
43430;BME280;29028;43.234;27.896;2022-10-23T04:52:53;100218.41;;;13.61;63.44
43430;BME280;29028;43.234;27.896;2022-10-23T04:53:14;100215.28;;;13.64;63.38
43430;BME280;29028;43.234;27.896;2022-10-23T04:53:34;100215.28;;;13.64;63.22
43430;BME280;29028;43.234;27.896;2022-10-23T04:53:55;100221.31;;;13.66;63.35
43430;BME280;29028;43.234;27.896;2022-10-23T04:54:17;100220.47;;;13.72;63.16
43430;BME280;29028;43.234;27.896;2022-10-23T04:54:38;100218.81;;;13.71;63.05
43430;BME280;29028;43.234;27.896;2022-10-23T04:54:59;100212.97;;;13.74;63.15
43430;BME280;29028;43.234;27.896;2022-10-23T04:55:20;100206.94;;;13.79;62.96
43430;BME280;29028;43.234;27.896;2022-10-23T04:55:47;100212.13;;;13.80;62.55
43430;BME280;29028;43.234;27.896;2022-10-23T04:56:12;100214.41;;;13.83;62.42
43430;BME280;29028;43.234;27.896;2022-10-23T04:56:34;100206.72;;;13.80;62.30
43430;BME280;29028;43.234;27.896;2022-10-23T04:56:55;100214.22;;;13.78;62.30
43430;BME280;29028;43.234;27.896;2022-10-23T04:57:16;100213.16;;;13.79;62.37
43430;BME280;29028;43.234;27.896;2022-10-23T04:57:36;100204.44;;;13.77;62.35
43430;BME280;29028;43.234;27.896;2022-10-23T04:57:57;100211.91;;;13.88;62.22
43430;BME280;29028;43.234;27.896;2022-10-23T04:58:19;100199.44;;;13.87;62.25
43430;BME280;29028;43.234;27.896;2022-10-23T04:58:41;100211.28;;;13.93;62.13
43430;BME280;29028;43.234;27.896;2022-10-23T04:59:02;100209.41;;;13.93;61.97
43430;BME280;29028;43.234;27.896;2022-10-23T04:59:23;100213.13;;;13.99;62.11
43430;BME280;29028;43.234;27.896;2022-10-23T04:59:44;100204.00;;;14.00;61.77
43430;BME280;29028;43.234;27.896;2022-10-23T05:00:08;100204.63;;;13.95;61.59
43430;BME280;29028;43.234;27.896;2022-10-23T05:00:31;100196.69;;;13.94;62.11
43430;BME280;29028;43.234;27.896;2022-10-23T05:00:53;100205.66;;;13.94;62.00
43430;BME280;29028;43.234;27.896;2022-10-23T05:01:14;100205.06;;;13.92;61.68
43430;BME280;29028;43.234;27.896;2022-10-23T05:01:36;100213.78;;;13.88;61.82
43430;BME280;29028;43.234;27.896;2022-10-23T05:01:56;100215.47;;;13.89;62.18
43430;BME280;29028;43.234;27.896;2022-10-23T05:02:17;100213.78;;;13.88;61.66
43430;BME280;29028;43.234;27.896;2022-10-23T05:02:40;100218.38;;;13.87;61.81
43430;BME280;29028;43.234;27.896;2022-10-23T05:03:00;100213.38;;;13.84;62.08
43430;BME280;29028;43.234;27.896;2022-10-23T05:03:23;100208.59;;;13.86;62.30
43430;BME280;29028;43.234;27.896;2022-10-23T05:03:44;100210.88;;;13.89;61.98
43430;BME280;29028;43.234;27.896;2022-10-23T05:04:05;100211.31;;;13.80;62.38
43430;BME280;29028;43.234;27.896;2022-10-23T05:04:26;100212.31;;;13.85;62.43
43430;BME280;29028;43.234;27.896;2022-10-23T05:04:48;100208.41;;;13.75;62.44
43430;BME280;29028;43.234;27.896;2022-10-23T05:05:09;100207.97;;;13.78;62.93
43430;BME280;29028;43.234;27.896;2022-10-23T05:05:30;100210.88;;;13.83;62.65
43430;BME280;29028;43.234;27.896;2022-10-23T05:05:52;100212.31;;;13.85;62.41
43430;BME280;29028;43.234;27.896;2022-10-23T05:06:15;100217.75;;;13.85;62.47
43430;BME280;29028;43.234;27.896;2022-10-23T05:06:36;100217.94;;;13.90;62.43
43430;BME280;29028;43.234;27.896;2022-10-23T05:06:56;100224.81;;;13.93;62.42
43430;BME280;29028;43.234;27.896;2022-10-23T05:07:17;100220.44;;;13.92;62.51
43430;BME280;29028;43.234;27.896;2022-10-23T05:07:39;100217.53;;;13.93;62.51
43430;BME280;29028;43.234;27.896;2022-10-23T05:08:00;100218.16;;;13.95;62.20
43430;BME280;29028;43.234;27.896;2022-10-23T05:08:22;100219.81;;;13.96;61.78
43430;BME280;29028;43.234;27.896;2022-10-23T05:08:43;100214.19;;;13.98;62.53
43430;BME280;29028;43.234;27.896;2022-10-23T05:09:04;100222.91;;;14.06;61.94
43430;BME280;29028;43.234;27.896;2022-10-23T05:09:25;100226.03;;;14.10;61.28
43430;BME280;29028;43.234;27.896;2022-10-23T05:09:46;100227.06;;;14.09;61.67
43430;BME280;29028;43.234;27.896;2022-10-23T05:10:08;100222.91;;;14.13;61.22
43430;BME280;29028;43.234;27.896;2022-10-23T05:10:29;100220.41;;;14.11;61.14
43430;BME280;29028;43.234;27.896;2022-10-23T05:10:50;100225.63;;;14.13;61.19
43430;BME280;29028;43.234;27.896;2022-10-23T05:11:12;100227.69;;;14.17;61.10
43430;BME280;29028;43.234;27.896;2022-10-23T05:11:32;100212.69;;;14.15;60.77
43430;BME280;29028;43.234;27.896;2022-10-23T05:11:54;100236.66;;;14.18;60.82
43430;BME280;29028;43.234;27.896;2022-10-23T05:12:15;100229.56;;;14.23;60.90
43430;BME280;29028;43.234;27.896;2022-10-23T05:12:36;100238.09;;;14.27;60.87
43430;BME280;29028;43.234;27.896;2022-10-23T05:12:57;100217.72;;;14.24;60.41
43430;BME280;29028;43.234;27.896;2022-10-23T05:13:18;100229.56;;;14.23;60.33
43430;BME280;29028;43.234;27.896;2022-10-23T05:13:40;100228.13;;;14.27;60.37
43430;BME280;29028;43.234;27.896;2022-10-23T05:14:01;100229.97;;;14.27;60.27
43430;BME280;29028;43.234;27.896;2022-10-23T05:14:22;100228.31;;;14.26;60.12
43430;BME280;29028;43.234;27.896;2022-10-23T05:14:42;100227.06;;;14.28;60.23
43430;BME280;29028;43.234;27.896;2022-10-23T05:15:05;100223.72;;;14.33;60.17
43430;BME280;29028;43.234;27.896;2022-10-23T05:15:26;100228.31;;;14.32;60.28
43430;BME280;29028;43.234;27.896;2022-10-23T05:15:47;100230.59;;;14.35;59.82
43430;BME280;29028;43.234;27.896;2022-10-23T05:16:08;100232.47;;;14.35;60.16
43430;BME280;29028;43.234;27.896;2022-10-23T05:16:35;100234.13;;;14.36;60.09
43430;BME280;29028;43.234;27.896;2022-10-23T05:17:00;100231.41;;;14.36;59.72
43430;BME280;29028;43.234;27.896;2022-10-23T05:17:26;100233.06;;;14.37;60.02
43430;BME280;29028;43.234;27.896;2022-10-23T05:17:52;100242.03;;;14.44;60.03
43430;BME280;29028;43.234;27.896;2022-10-23T05:18:19;100237.22;;;14.46;59.55
43430;BME280;29028;43.234;27.896;2022-10-23T05:18:44;100235.75;;;14.50;59.13
43430;BME280;29028;43.234;27.896;2022-10-23T05:19:08;100227.81;;;14.55;59.08
43430;BME280;29028;43.234;27.896;2022-10-23T05:19:33;100232.59;;;14.59;58.98
43430;BME280;29028;43.234;27.896;2022-10-23T05:19:59;100228.81;;;14.67;58.63
43430;BME280;29028;43.234;27.896;2022-10-23T05:20:24;100226.09;;;14.73;58.26
43430;BME280;29028;43.234;27.896;2022-10-23T05:20:47;100221.66;;;14.79;58.23
43430;BME280;29028;43.234;27.896;2022-10-23T05:21:13;100235.41;;;14.84;58.12
43430;BME280;29028;43.234;27.896;2022-10-23T05:21:38;100226.59;;;14.88;57.84
43430;BME280;29028;43.234;27.896;2022-10-23T05:22:00;100227.25;;;14.90;57.65
43430;BME280;29028;43.234;27.896;2022-10-23T05:22:23;100232.22;;;14.93;57.52
43430;BME280;29028;43.234;27.896;2022-10-23T05:22:46;100231.34;;;14.99;57.50
43430;BME280;29028;43.234;27.896;2022-10-23T05:23:12;100234.88;;;15.06;57.14
43430;BME280;29028;43.234;27.896;2022-10-23T05:23:35;100235.06;;;15.11;56.91
43430;BME280;29028;43.234;27.896;2022-10-23T05:23:57;100231.47;;;15.17;56.59
43430;BME280;29028;43.234;27.896;2022-10-23T05:24:19;100237.88;;;15.23;56.53
43430;BME280;29028;43.234;27.896;2022-10-23T05:24:41;100225.75;;;15.25;56.49
43430;BME280;29028;43.234;27.896;2022-10-23T05:25:03;100229.72;;;15.29;56.37
43430;BME280;29028;43.234;27.896;2022-10-23T05:25:24;100227.22;;;15.34;56.32
43430;BME280;29028;43.234;27.896;2022-10-23T05:25:45;100230.31;;;15.38;56.08
43430;BME280;29028;43.234;27.896;2022-10-23T05:26:06;100213.63;;;15.34;55.89
43430;BME280;29028;43.234;27.896;2022-10-23T05:26:30;100236.28;;;15.46;55.87
43430;BME280;29028;43.234;27.896;2022-10-23T05:26:51;100232.47;;;15.54;55.45
43430;BME280;29028;43.234;27.896;2022-10-23T05:27:12;100230.16;;;15.57;55.25
43430;BME280;29028;43.234;27.896;2022-10-23T05:27:33;100218.44;;;15.57;55.06
43430;BME280;29028;43.234;27.896;2022-10-23T05:27:54;100236.13;;;15.66;55.06
43430;BME280;29028;43.234;27.896;2022-10-23T05:28:16;100228.75;;;15.73;54.69
43430;BME280;29028;43.234;27.896;2022-10-23T05:28:37;100226.03;;;15.73;54.65
43430;BME280;29028;43.234;27.896;2022-10-23T05:28:57;100237.69;;;15.80;54.61
43430;BME280;29028;43.234;27.896;2022-10-23T05:29:19;100231.81;;;15.83;54.30
43430;BME280;29028;43.234;27.896;2022-10-23T05:29:40;100233.25;;;15.85;54.37
43430;BME280;29028;43.234;27.896;2022-10-23T05:30:02;100237.56;;;15.93;54.25
43430;BME280;29028;43.234;27.896;2022-10-23T05:30:23;100240.44;;;15.98;54.03
43430;BME280;29028;43.234;27.896;2022-10-23T05:30:44;100237.69;;;16.04;53.82
43430;BME280;29028;43.234;27.896;2022-10-23T05:31:05;100242.38;;;16.15;53.60
43430;BME280;29028;43.234;27.896;2022-10-23T05:31:27;100238.97;;;16.20;53.40
43430;BME280;29028;43.234;27.896;2022-10-23T05:31:51;100238.28;;;16.24;53.05
43430;BME280;29028;43.234;27.896;2022-10-23T05:32:15;100237.75;;;16.34;53.04
43430;BME280;29028;43.234;27.896;2022-10-23T05:32:36;100235.66;;;16.36;52.91
43430;BME280;29028;43.234;27.896;2022-10-23T05:33:00;100240.00;;;16.43;52.57
43430;BME280;29028;43.234;27.896;2022-10-23T05:33:22;100239.38;;;16.41;52.69
43430;BME280;29028;43.234;27.896;2022-10-23T05:33:42;100236.22;;;16.44;52.53
43430;BME280;29028;43.234;27.896;2022-10-23T05:34:04;100237.06;;;16.45;52.52
43430;BME280;29028;43.234;27.896;2022-10-23T05:34:26;100244.16;;;16.46;52.55
43430;BME280;29028;43.234;27.896;2022-10-23T05:34:49;100246.63;;;16.47;52.39
43430;BME280;29028;43.234;27.896;2022-10-23T05:35:14;100238.03;;;16.50;52.20
43430;BME280;29028;43.234;27.896;2022-10-23T05:35:37;100244.69;;;16.54;52.39
43430;BME280;29028;43.234;27.896;2022-10-23T05:35:59;100245.28;;;16.56;52.24
43430;BME280;29028;43.234;27.896;2022-10-23T05:36:22;100238.72;;;16.64;51.91
43430;BME280;29028;43.234;27.896;2022-10-23T05:36:44;100238.09;;;16.80;51.57
43430;BME280;29028;43.234;27.896;2022-10-23T05:37:06;100234.31;;;16.81;51.68
43430;BME280;29028;43.234;27.896;2022-10-23T05:37:29;100235.88;;;16.88;51.49
43430;BME280;29028;43.234;27.896;2022-10-23T05:37:51;100238.38;;;16.90;51.21
43430;BME280;29028;43.234;27.896;2022-10-23T05:38:14;100241.25;;;16.95;51.21
43430;BME280;29028;43.234;27.896;2022-10-23T05:38:36;100250.59;;;16.99;50.98
43430;BME280;29028;43.234;27.896;2022-10-23T05:38:57;100252.28;;;17.00;50.96
43430;BME280;29028;43.234;27.896;2022-10-23T05:39:18;100244.25;;;17.05;50.79
43430;BME280;29028;43.234;27.896;2022-10-23T05:39:41;100242.34;;;17.05;50.82
43430;BME280;29028;43.234;27.896;2022-10-23T05:40:02;100253.81;;;17.07;50.83
43430;BME280;29028;43.234;27.896;2022-10-23T05:40:24;100245.81;;;17.12;50.59
43430;BME280;29028;43.234;27.896;2022-10-23T05:40:45;100249.03;;;17.21;50.40
43430;BME280;29028;43.234;27.896;2022-10-23T05:41:07;100245.50;;;17.20;50.39
43430;BME280;29028;43.234;27.896;2022-10-23T05:41:27;100255.53;;;17.20;50.51
43430;BME280;29028;43.234;27.896;2022-10-23T05:41:48;100250.09;;;17.20;50.38
43430;BME280;29028;43.234;27.896;2022-10-23T05:42:10;100246.09;;;17.22;50.43
43430;BME280;29028;43.234;27.896;2022-10-23T05:42:32;100252.13;;;17.24;50.34
43430;BME280;29028;43.234;27.896;2022-10-23T05:42:53;100246.84;;;17.29;50.36
43430;BME280;29028;43.234;27.896;2022-10-23T05:43:14;100236.53;;;17.31;50.14
43430;BME280;29028;43.234;27.896;2022-10-23T05:43:35;100240.69;;;17.34;50.01
43430;BME280;29028;43.234;27.896;2022-10-23T05:43:56;100246.50;;;17.37;50.20
43430;BME280;29028;43.234;27.896;2022-10-23T05:44:17;100231.84;;;17.38;49.99
43430;BME280;29028;43.234;27.896;2022-10-23T05:44:38;100247.09;;;17.39;50.11
43430;BME280;29028;43.234;27.896;2022-10-23T05:44:59;100246.88;;;17.41;50.12
43430;BME280;29028;43.234;27.896;2022-10-23T05:45:21;100239.34;;;17.43;50.10
43430;BME280;29028;43.234;27.896;2022-10-23T05:45:42;100235.28;;;17.45;49.75
43430;BME280;29028;43.234;27.896;2022-10-23T05:46:04;100235.91;;;17.47;50.11
43430;BME280;29028;43.234;27.896;2022-10-23T05:46:25;100245.84;;;17.53;49.81
43430;BME280;29028;43.234;27.896;2022-10-23T05:46:48;100241.47;;;17.52;49.79
43430;BME280;29028;43.234;27.896;2022-10-23T05:47:09;100248.00;;;17.51;50.03
43430;BME280;29028;43.234;27.896;2022-10-23T05:47:29;100242.78;;;17.61;49.61
43430;BME280;29028;43.234;27.896;2022-10-23T05:47:50;100234.50;;;17.68;49.42
43430;BME280;29028;43.234;27.896;2022-10-23T05:48:15;100236.16;;;17.69;49.40
43430;BME280;29028;43.234;27.896;2022-10-23T05:48:35;100239.16;;;17.67;49.57
43430;BME280;29028;43.234;27.896;2022-10-23T05:48:56;100243.03;;;17.71;49.45
43430;BME280;29028;43.234;27.896;2022-10-23T05:49:17;100241.75;;;17.74;49.43
43430;BME280;29028;43.234;27.896;2022-10-23T05:49:39;100246.38;;;17.73;49.34
43430;BME280;29028;43.234;27.896;2022-10-23T05:50:00;100246.38;;;17.73;49.58
43430;BME280;29028;43.234;27.896;2022-10-23T05:50:20;100245.09;;;17.76;49.27
43430;BME280;29028;43.234;27.896;2022-10-23T05:50:41;100246.75;;;17.77;49.25
43430;BME280;29028;43.234;27.896;2022-10-23T05:51:04;100245.66;;;17.78;49.50
43430;BME280;29028;43.234;27.896;2022-10-23T05:51:25;100245.09;;;17.76;49.19
43430;BME280;29028;43.234;27.896;2022-10-23T05:51:46;100248.63;;;17.76;49.45
43430;BME280;29028;43.234;27.896;2022-10-23T05:52:09;100227.91;;;17.75;49.04
43430;BME280;29028;43.234;27.896;2022-10-23T05:52:30;100253.13;;;17.82;49.08
43430;BME280;29028;43.234;27.896;2022-10-23T05:52:52;100242.47;;;17.81;49.16
43430;BME280;29028;43.234;27.896;2022-10-23T05:53:13;100242.22;;;17.82;49.26